Time,TemperatureF,DewpointF,PressureIn,WindDirection,WindDirectionDegrees,WindSpeedMPH,WindSpeedGustMPH,Humidity,HourlyPrecipIn,Conditions,Clouds,dailyrainin,SolarRadiationWatts/m^2,SoftwareType,DateUTC
2013-02-17 00:10:00,50.3,49.0,30.07,West,263,5.0,13.0,96,0.00,,,0.00,0,weatherlink.com 1.10,2013-02-17 08:10:00,
2013-02-17 00:25:00,50.1,49.0,30.07,WNW,283,9.0,11.0,96,0.00,,,0.00,0,weatherlink.com 1.10,2013-02-17 08:25:00,
2013-02-17 00:40:00,50.0,49.0,30.07,WNW,289,12.0,12.0,96,0.00,,,0.00,0,weatherlink.com 1.10,2013-02-17 08:40:00,
2013-02-17 00:55:00,49.6,49.0,30.07,WNW,300,9.0,11.0,96,0.00,,,0.00,0,weatherlink.com 1.10,2013-02-17 08:55:00,
2013-02-17 01:10:00,49.4,48.0,30.07,NW,315,5.0,11.0,96,0.00,,,0.00,0,weatherlink.com 1.10,2013-02-17 09:10:00,
2013-02-17 01:25:00,49.3,48.0,30.07,NW,326,4.0,12.0,96,0.00,,,0.00,0,weatherlink.com 1.10,2013-02-17 09:25:00,
2013-02-17 01:40:00,48.5,48.0,30.07,NW,321,4.0,5.0,96,0.00,,,0.00,0,weatherlink.com 1.10,2013-02-17 09:40:00,
2013-02-17 01:55:00,48.4,47.0,30.06,North,360,4.0,5.0,96,0.00,,,0.00,0,weatherlink.com 1.10,2013-02-17 09:55:00,
2013-02-17 02:10:00,48.7,48.0,30.06,NNW,338,1.0,11.0,96,0.00,,,0.00,0,weatherlink.com 1.10,2013-02-17 10:10:00,
2013-02-17 02:25:00,48.7,48.0,30.05,NNW,342,4.0,8.0,96,0.00,,,0.00,0,weatherlink.com 1.10,2013-02-17 10:25:00,
2013-02-17 02:40:00,48.8,48.0,30.05,NW,321,6.0,8.0,96,0.00,,,0.00,0,weatherlink.com 1.10,2013-02-17 10:40:00,
2013-02-17 02:55:00,48.7,48.0,30.04,WNW,300,2.0,6.0,96,0.00,,,0.00,0,weatherlink.com 1.10,2013-02-17 10:55:00,
2013-02-17 03:10:00,48.7,47.0,30.04,NW,323,2.0,8.0,95,0.00,,,0.00,0,weatherlink.com 1.10,2013-02-17 11:10:00,
2013-02-17 03:25:00,48.3,47.0,30.03,NNW,337,1.0,5.0,95,0.00,,,0.00,0,weatherlink.com 1.10,2013-02-17 11:25:00,
2013-02-17 03:41:00,48.4,47.0,30.03,WNW,286,0.0,6.0,95,0.00,,,0.00,0,weatherlink.com 1.10,2013-02-17 11:41:00,
2013-02-17 03:56:00,48.5,47.0,30.03,NNE,25,0.0,4.0,94,0.00,,,0.00,0,weatherlink.com 1.10,2013-02-17 11:56:00,
2013-02-17 04:11:00,48.2,47.0,30.03,West,279,3.0,6.0,94,0.00,,,0.00,0,weatherlink.com 1.10,2013-02-17 12:11:00,
2013-02-17 04:26:00,48.4,47.0,30.03,North,355,2.0,9.0,94,0.00,,,0.00,0,weatherlink.com 1.10,2013-02-17 12:26:00,
2013-02-17 04:41:00,48.3,46.0,30.03,NNW,336,4.0,19.0,93,0.00,,,0.00,0,weatherlink.com 1.10,2013-02-17 12:41:00,
2013-02-17 04:56:00,48.5,46.0,30.03,WNW,301,16.0,19.0,91,0.00,,,0.00,0,weatherlink.com 1.10,2013-02-17 12:56:00,
2013-02-17 05:11:00,48.2,46.0,30.03,NW,317,5.0,14.0,90,0.00,,,0.00,0,weatherlink.com 1.10,2013-02-17 13:11:00,
2013-02-17 05:26:00,48.0,45.0,30.03,West,279,6.0,15.0,90,0.00,,,0.00,0,weatherlink.com 1.10,2013-02-17 13:26:00,
2013-02-17 05:41:00,47.9,45.0,30.03,NNW,343,2.0,14.0,90,0.00,,,0.00,0,weatherlink.com 1.10,2013-02-17 13:41:00,
2013-02-17 05:56:00,47.1,44.0,30.03,NW,321,2.0,10.0,89,0.00,,,0.00,0,weatherlink.com 1.10,2013-02-17 13:56:00,
2013-02-17 06:11:00,46.2,43.0,30.04,NNE,14,5.0,8.0,89,0.00,,,0.00,0,weatherlink.com 1.10,2013-02-17 14:11:00,
2013-02-17 06:26:00,45.6,42.0,30.04,NNW,330,4.0,8.0,88,0.00,,,0.00,0,weatherlink.com 1.10,2013-02-17 14:26:00,
2013-02-17 06:41:00,45.4,42.0,30.04,North,10,2.0,6.0,87,0.00,,,0.00,0,weatherlink.com 1.10,2013-02-17 14:41:00,
2013-02-17 06:56:00,44.7,41.0,30.05,North,11,0.0,4.0,88,0.00,,,0.00,5,weatherlink.com 1.10,2013-02-17 14:56:00,
2013-02-17 07:11:00,44.1,41.0,30.05,ENE,59,0.0,5.0,87,0.00,,,0.00,14,weatherlink.com 1.10,2013-02-17 15:11:00,
2013-02-17 07:26:00,43.4,40.0,30.05,NE,44,1.0,4.0,88,0.00,,,0.00,25,weatherlink.com 1.10,2013-02-17 15:26:00,
2013-02-17 07:41:00,43.2,41.0,30.05,NE,55,2.0,6.0,90,0.00,,,0.00,33,weatherlink.com 1.10,2013-02-17 15:41:00,
2013-02-17 07:56:00,44.4,42.0,30.05,NE,37,0.0,4.0,90,0.00,,,0.00,125,weatherlink.com 1.10,2013-02-17 15:56:00,
2013-02-17 08:11:00,46.0,43.0,30.05,NE,37,0.0,1.0,89,0.00,,,0.00,179,weatherlink.com 1.10,2013-02-17 16:11:00,
2013-02-17 08:26:00,47.9,44.0,30.05,NNE,19,1.0,2.0,86,0.00,,,0.00,234,weatherlink.com 1.10,2013-02-17 16:26:00,
2013-02-17 08:41:00,48.3,44.0,30.06,North,9,4.0,5.0,85,0.00,,,0.00,287,weatherlink.com 1.10,2013-02-17 16:41:00,
2013-02-17 08:56:00,50.7,46.0,30.06,NW,323,2.0,5.0,83,0.00,,,0.00,336,weatherlink.com 1.10,2013-02-17 16:56:00,
2013-02-17 09:11:00,50.9,45.0,30.06,NW,311,0.0,7.0,81,0.00,,,0.00,376,weatherlink.com 1.10,2013-02-17 17:11:00,
2013-02-17 09:27:00,51.0,46.0,30.06,West,275,6.0,8.0,82,0.00,,,0.00,418,weatherlink.com 1.10,2013-02-17 17:27:00,
2013-02-17 09:42:00,50.9,44.0,30.06,West,273,5.0,8.0,76,0.00,,,0.00,466,weatherlink.com 1.10,2013-02-17 17:42:00,
2013-02-17 09:57:00,52.0,44.0,30.05,NW,304,4.0,9.0,75,0.00,,,0.00,503,weatherlink.com 1.10,2013-02-17 17:57:00,
2013-02-17 10:12:00,51.8,44.0,30.05,West,278,5.0,8.0,74,0.00,,,0.00,538,weatherlink.com 1.10,2013-02-17 18:12:00,
2013-02-17 10:27:00,52.4,45.0,30.05,West,277,2.0,8.0,75,0.00,,,0.00,568,weatherlink.com 1.10,2013-02-17 18:27:00,
2013-02-17 10:42:00,53.1,44.0,30.05,WNW,285,5.0,6.0,72,0.00,,,0.00,596,weatherlink.com 1.10,2013-02-17 18:42:00,
2013-02-17 10:57:00,53.9,43.0,30.05,West,276,0.0,5.0,68,0.00,,,0.00,622,weatherlink.com 1.10,2013-02-17 18:57:00,
2013-02-17 11:12:00,55.0,44.0,30.05,WNW,301,2.0,5.0,66,0.00,,,0.00,643,weatherlink.com 1.10,2013-02-17 19:12:00,
2013-02-17 11:27:00,55.3,44.0,30.05,West,276,4.0,6.0,67,0.00,,,0.00,661,weatherlink.com 1.10,2013-02-17 19:27:00,
2013-02-17 11:42:00,55.5,45.0,30.05,West,276,2.0,10.0,69,0.00,,,0.00,673,weatherlink.com 1.10,2013-02-17 19:42:00,
2013-02-17 11:57:00,55.6,46.0,30.04,WNW,292,2.0,10.0,71,0.00,,,0.00,680,weatherlink.com 1.10,2013-02-17 19:57:00,
2013-02-17 12:12:00,56.0,46.0,30.04,West,264,7.0,8.0,70,0.00,,,0.00,687,weatherlink.com 1.10,2013-02-17 20:12:00,
2013-02-17 12:27:00,56.6,45.0,30.03,WNW,299,4.0,9.0,66,0.00,,,0.00,686,weatherlink.com 1.10,2013-02-17 20:27:00,
2013-02-17 12:42:00,56.7,46.0,30.02,West,260,6.0,9.0,67,0.00,,,0.00,682,weatherlink.com 1.10,2013-02-17 20:42:00,
2013-02-17 12:57:00,56.7,46.0,30.02,WNW,289,9.0,10.0,67,0.00,,,0.00,675,weatherlink.com 1.10,2013-02-17 20:57:00,
2013-02-17 13:12:00,56.4,45.0,30.01,West,281,6.0,9.0,65,0.00,,,0.00,664,weatherlink.com 1.10,2013-02-17 21:12:00,
2013-02-17 13:27:00,56.2,45.0,30.01,West,274,7.0,10.0,66,0.00,,,0.00,647,weatherlink.com 1.10,2013-02-17 21:27:00,
2013-02-17 13:42:00,55.9,45.0,30.01,West,275,8.0,11.0,67,0.00,,,0.00,629,weatherlink.com 1.10,2013-02-17 21:42:00,
2013-02-17 13:57:00,56.0,45.0,30.01,West,270,6.0,10.0,66,0.00,,,0.00,606,weatherlink.com 1.10,2013-02-17 21:57:00,
2013-02-17 14:12:00,56.0,46.0,30.00,West,271,3.0,9.0,69,0.00,,,0.00,580,weatherlink.com 1.10,2013-02-17 22:12:00,
2013-02-17 14:27:00,56.1,47.0,30.00,West,272,7.0,9.0,71,0.00,,,0.00,550,weatherlink.com 1.10,2013-02-17 22:27:00,
2013-02-17 14:42:00,55.4,46.0,30.00,WNW,292,6.0,10.0,72,0.00,,,0.00,522,weatherlink.com 1.10,2013-02-17 22:42:00,
2013-02-17 14:57:00,55.7,48.0,30.00,WSW,250,7.0,11.0,76,0.00,,,0.00,483,weatherlink.com 1.10,2013-02-17 22:57:00,
2013-02-17 15:12:00,55.8,49.0,30.00,West,269,7.0,9.0,78,0.00,,,0.00,446,weatherlink.com 1.10,2013-02-17 23:12:00,
2013-02-17 15:28:00,55.6,49.0,30.00,NW,306,2.0,9.0,79,0.00,,,0.00,406,weatherlink.com 1.10,2013-02-17 23:28:00,
2013-02-17 15:43:00,55.4,49.0,29.99,West,269,7.0,9.0,78,0.00,,,0.00,362,weatherlink.com 1.10,2013-02-17 23:43:00,
2013-02-17 15:58:00,55.3,49.0,29.99,West,267,7.0,9.0,79,0.00,,,0.00,315,weatherlink.com 1.10,2013-02-17 23:58:00,
2013-02-17 16:13:00,54.6,49.0,29.99,WSW,254,4.0,8.0,81,0.00,,,0.00,265,weatherlink.com 1.10,2013-02-18 00:13:00,
2013-02-17 16:28:00,53.9,48.0,29.99,West,271,7.0,10.0,81,0.00,,,0.00,206,weatherlink.com 1.10,2013-02-18 00:28:00,
2013-02-17 16:43:00,53.3,48.0,29.99,WSW,250,5.0,10.0,83,0.00,,,0.00,155,weatherlink.com 1.10,2013-02-18 00:43:00,
2013-02-17 16:58:00,52.9,48.0,29.99,WSW,258,6.0,10.0,83,0.00,,,0.00,102,weatherlink.com 1.10,2013-02-18 00:58:00,
2013-02-17 17:13:00,52.7,48.0,29.99,West,270,7.0,8.0,83,0.00,,,0.00,60,weatherlink.com 1.10,2013-02-18 01:13:00,
2013-02-17 17:28:00,52.2,48.0,29.99,NW,305,3.0,7.0,84,0.00,,,0.00,26,weatherlink.com 1.10,2013-02-18 01:28:00,
2013-02-17 17:43:00,51.0,47.0,29.99,West,263,0.0,7.0,87,0.00,,,0.00,12,weatherlink.com 1.10,2013-02-18 01:43:00,
2013-02-17 17:58:00,50.5,47.0,29.99,West,271,2.0,6.0,89,0.00,,,0.00,0,weatherlink.com 1.10,2013-02-18 01:58:00,
2013-02-17 18:13:00,50.0,47.0,30.00,WNW,289,1.0,7.0,90,0.00,,,0.00,0,weatherlink.com 1.10,2013-02-18 02:13:00,
2013-02-17 18:28:00,49.8,47.0,30.00,WNW,295,0.0,7.0,91,0.00,,,0.00,0,weatherlink.com 1.10,2013-02-18 02:28:00,
2013-02-17 18:43:00,49.3,47.0,30.00,West,274,0.0,2.0,91,0.00,,,0.00,0,weatherlink.com 1.10,2013-02-18 02:43:00,
2013-02-17 18:58:00,49.3,47.0,30.00,WNW,284,0.0,4.0,92,0.00,,,0.00,0,weatherlink.com 1.10,2013-02-18 02:58:00,
2013-02-17 19:13:00,49.0,47.0,30.00,WNW,300,1.0,4.0,92,0.00,,,0.00,0,weatherlink.com 1.10,2013-02-18 03:13:00,
2013-02-17 19:28:00,49.1,47.0,30.00,WNW,303,2.0,4.0,93,0.00,,,0.00,0,weatherlink.com 1.10,2013-02-18 03:28:00,
2013-02-17 19:43:00,49.0,47.0,30.01,WNW,294,4.0,7.0,92,0.00,,,0.00,0,weatherlink.com 1.10,2013-02-18 03:43:00,
2013-02-17 19:58:00,49.0,47.0,30.01,WNW,298,1.0,9.0,93,0.00,,,0.00,0,weatherlink.com 1.10,2013-02-18 03:58:00,
2013-02-17 20:13:00,49.0,47.0,30.00,NW,304,1.0,5.0,92,0.00,,,0.00,0,weatherlink.com 1.10,2013-02-18 04:13:00,
2013-02-17 20:28:00,48.9,47.0,30.01,West,278,3.0,5.0,93,0.00,,,0.00,0,weatherlink.com 1.10,2013-02-18 04:28:00,
2013-02-17 20:43:00,48.8,47.0,30.01,NW,310,5.0,5.0,93,0.00,,,0.00,0,weatherlink.com 1.10,2013-02-18 04:43:00,
2013-02-17 20:58:00,48.7,47.0,30.02,West,274,5.0,10.0,93,0.00,,,0.00,0,weatherlink.com 1.10,2013-02-18 04:58:00,
2013-02-17 21:13:00,48.8,47.0,30.02,NW,310,4.0,7.0,93,0.00,,,0.00,0,weatherlink.com 1.10,2013-02-18 05:13:00,
2013-02-17 21:28:00,48.8,47.0,30.02,WNW,300,5.0,7.0,93,0.00,,,0.00,0,weatherlink.com 1.10,2013-02-18 05:28:00,
2013-02-17 21:43:00,48.6,47.0,30.02,NNW,332,0.0,8.0,93,0.00,,,0.00,0,weatherlink.com 1.10,2013-02-18 05:43:00,
2013-02-17 21:58:00,48.6,47.0,30.02,WNW,295,2.0,5.0,94,0.00,,,0.00,0,weatherlink.com 1.10,2013-02-18 05:58:00,
2013-02-17 22:13:00,48.7,47.0,30.02,West,263,3.0,9.0,94,0.00,,,0.00,0,weatherlink.com 1.10,2013-02-18 06:13:00,
2013-02-17 22:28:00,48.5,47.0,30.02,West,262,5.0,7.0,94,0.00,,,0.00,0,weatherlink.com 1.10,2013-02-18 06:28:00,
2013-02-17 22:43:00,48.6,47.0,30.02,West,280,4.0,7.0,94,0.00,,,0.00,0,weatherlink.com 1.10,2013-02-18 06:43:00,
2013-02-17 22:58:00,48.5,47.0,30.02,West,281,1.0,6.0,94,0.00,,,0.00,0,weatherlink.com 1.10,2013-02-18 06:58:00,
2013-02-17 23:13:00,48.5,47.0,30.02,NW,309,1.0,8.0,94,0.00,,,0.00,0,weatherlink.com 1.10,2013-02-18 07:13:00,
2013-02-17 23:28:00,48.3,47.0,30.02,West,271,4.0,7.0,95,0.00,,,0.00,0,weatherlink.com 1.10,2013-02-18 07:28:00,
2013-02-17 23:43:00,48.4,47.0,30.02,NW,309,4.0,8.0,95,0.00,,,0.00,0,weatherlink.com 1.10,2013-02-18 07:43:00,
2013-02-17 23:58:00,48.3,47.0,30.02,WNW,299,4.0,9.0,94,0.00,,,0.00,0,weatherlink.com 1.10,2013-02-18 07:58:00,